createdAt,value
2018-08-12T00:01:15.028Z,97949.12
2018-08-12T00:03:43.511Z,97951.69
2018-08-12T00:06:12.001Z,97948.30
2018-08-12T00:08:42.303Z,97942.28
2018-08-12T00:11:10.818Z,97941.41
2018-08-12T00:13:39.345Z,97944.41
2018-08-12T00:16:08.282Z,97941.84
2018-08-12T00:18:36.774Z,97942.28
2018-08-12T00:21:05.254Z,97936.66
2018-08-12T00:23:33.754Z,97942.69
2018-08-12T00:26:02.231Z,97939.67
2018-08-12T00:28:30.768Z,97935.82
2018-08-12T00:30:59.310Z,97934.53
2018-08-12T00:33:27.797Z,97940.12
2018-08-12T00:35:56.394Z,97942.25
2018-08-12T00:38:24.872Z,97940.56
2018-08-12T00:40:53.346Z,97929.09
2018-08-12T00:43:21.940Z,97937.25
2018-08-12T00:45:50.528Z,97938.53
2018-08-12T00:48:19.035Z,97933.80
2018-08-12T00:50:47.546Z,97935.05
2018-08-12T00:53:16.056Z,97929.47
2018-08-12T00:55:44.569Z,97911.19
2018-08-12T00:58:13.091Z,97928.59
2018-08-12T01:00:41.614Z,97929.47
2018-08-12T01:03:10.156Z,97929.87
2018-08-12T01:05:38.661Z,97933.31
2018-08-12T01:08:07.187Z,97931.62
2018-08-12T01:10:35.762Z,97929.02
2018-08-12T01:13:04.923Z,97924.73
2018-08-12T01:15:34.235Z,97917.89
2018-08-12T01:18:02.780Z,97913.59
2018-08-12T01:20:31.347Z,97915.69
2018-08-12T01:23:00.040Z,97916.47
2018-08-12T01:25:28.660Z,97922.07
2018-08-12T01:27:57.327Z,97920.65
2018-08-12T01:30:25.870Z,97921.17
2018-08-12T01:32:54.466Z,97909.23
2018-08-12T01:35:23.089Z,97915.12
2018-08-12T01:37:51.812Z,97910.93
2018-08-12T01:40:20.590Z,97918.38
2018-08-12T01:42:49.100Z,97918.31
2018-08-12T01:45:19.521Z,97911.79
2018-08-12T01:47:48.116Z,97900.16
2018-08-12T01:50:18.136Z,97895.89
2018-08-12T01:52:46.683Z,97896.88
2018-08-12T01:55:15.820Z,97896.41
2018-08-12T01:57:44.370Z,97887.70
2018-08-12T02:00:21.909Z,97888.25
2018-08-12T02:02:50.687Z,97889.55
2018-08-12T02:05:19.657Z,97890.30
2018-08-12T02:07:48.148Z,97887.69
2018-08-12T02:10:16.599Z,97877.05
2018-08-12T02:12:45.055Z,97877.83
2018-08-12T02:15:13.675Z,97873.88
2018-08-12T02:17:42.693Z,97873.59
2018-08-12T02:20:12.079Z,97871.84
2018-08-12T02:22:41.215Z,97867.84
2018-08-12T02:25:10.491Z,97866.72
2018-08-12T02:27:39.084Z,97859.63
2018-08-12T02:30:09.432Z,97855.23
2018-08-12T02:32:37.924Z,97849.14
2018-08-12T02:35:06.628Z,97848.02
2018-08-12T02:37:35.178Z,97850.47
2018-08-12T02:40:04.062Z,97841.98
2018-08-12T02:42:32.524Z,97840.64
2018-08-12T02:45:01.022Z,97840.38
2018-08-12T02:47:29.888Z,97837.66
2018-08-12T02:49:58.355Z,97835.33
2018-08-12T02:52:26.813Z,97832.98
2018-08-12T02:54:55.284Z,97834.16
2018-08-12T02:57:23.735Z,97828.11
2018-08-12T02:59:52.192Z,97831.44
2018-08-12T03:02:20.663Z,97834.47
2018-08-12T03:04:49.142Z,97832.29
2018-08-12T03:07:17.616Z,97826.90
2018-08-12T03:09:46.099Z,97822.47
2018-08-12T03:12:14.558Z,97821.78
2018-08-12T03:14:42.998Z,97821.22
2018-08-12T03:17:11.471Z,97818.50
2018-08-12T03:19:40.035Z,97815.83
2018-08-12T03:22:08.503Z,97820.67
2018-08-12T03:24:37.781Z,97812.16
2018-08-12T03:27:06.865Z,97814.66
2018-08-12T03:29:35.338Z,97813.66
2018-08-12T03:32:03.821Z,97813.60
2018-08-12T03:34:32.273Z,97813.70
2018-08-12T03:37:00.734Z,97810.58
2018-08-12T03:39:29.211Z,97810.01
2018-08-12T03:41:57.673Z,97815.06
2018-08-12T03:44:26.136Z,97812.45
2018-08-12T03:46:54.605Z,97798.41
2018-08-12T03:49:23.058Z,97799.90
2018-08-12T03:51:51.540Z,97801.52
2018-08-12T03:54:20.023Z,97802.39
2018-08-12T03:56:48.675Z,97799.84
2018-08-12T03:59:17.238Z,97800.05
2018-08-12T04:01:45.703Z,97798.94
2018-08-12T04:04:14.163Z,97803.98
2018-08-12T04:06:42.670Z,97802.09
2018-08-12T04:09:11.573Z,97806.34
2018-08-12T04:11:40.192Z,97807.20
2018-08-12T04:14:08.734Z,97812.79
2018-08-12T04:16:37.219Z,97816.61
2018-08-12T04:19:06.209Z,97814.97
2018-08-12T04:21:34.602Z,97816.58
2018-08-12T04:24:03.071Z,97817.80
2018-08-12T04:26:31.547Z,97816.58
2018-08-12T04:29:00.071Z,97816.70
2018-08-12T04:31:28.535Z,97812.30
2018-08-12T04:33:56.994Z,97815.30
2018-08-12T04:36:25.468Z,97815.24
2018-08-12T04:38:53.934Z,97811.36
2018-08-12T04:41:22.435Z,97814.36
2018-08-12T04:43:50.898Z,97804.92
2018-08-12T04:46:19.379Z,97809.20
2018-08-12T04:48:47.826Z,97809.14
2018-08-12T04:51:16.295Z,97803.64
2018-08-12T04:53:44.763Z,97802.30
2018-08-12T04:56:13.300Z,97798.15
2018-08-12T04:58:41.766Z,97801.22
2018-08-12T05:01:10.230Z,97797.39
2018-08-12T05:03:38.718Z,97796.51
2018-08-12T05:06:07.183Z,97797.00
2018-08-12T05:08:35.698Z,97795.66
2018-08-12T05:11:04.159Z,97796.11
2018-08-12T05:13:32.638Z,97795.23
2018-08-12T05:16:01.109Z,97790.56
2018-08-12T05:18:29.561Z,97797.45
2018-08-12T05:20:58.028Z,97789.47
2018-08-12T05:23:26.614Z,97791.25
2018-08-12T05:25:55.073Z,97786.42
2018-08-12T05:28:23.566Z,97786.09
2018-08-12T05:30:52.035Z,97780.59
2018-08-12T05:33:20.670Z,97772.70
2018-08-12T05:35:49.152Z,97779.74
2018-08-12T05:38:17.614Z,97778.80
2018-08-12T05:40:46.164Z,97778.91
2018-08-12T05:43:14.650Z,97776.48
2018-08-12T05:45:43.110Z,97775.77
2018-08-12T05:48:11.553Z,97775.50
2018-08-12T05:50:40.076Z,97778.11
2018-08-12T05:53:08.606Z,97774.34
2018-08-12T05:55:37.072Z,97779.19
2018-08-12T05:58:05.967Z,97776.41
2018-08-12T06:00:34.436Z,97775.70
2018-08-12T06:03:02.944Z,97773.38
2018-08-12T06:05:31.402Z,97773.64
2018-08-12T06:07:59.875Z,97768.27
2018-08-12T06:10:28.352Z,97765.16
2018-08-12T06:12:56.801Z,97761.94
2018-08-12T06:15:25.275Z,97763.04
2018-08-12T06:17:53.742Z,97755.22
2018-08-12T06:20:22.212Z,97750.33
2018-08-12T06:22:50.698Z,97749.78
2018-08-12T06:25:19.233Z,97742.33
2018-08-12T06:27:47.689Z,97733.98
2018-08-12T06:30:16.174Z,97730.70
2018-08-12T06:32:44.641Z,97731.34
2018-08-12T06:35:13.391Z,97734.45
2018-08-12T06:37:42.131Z,97731.66
2018-08-12T06:40:12.794Z,97736.48
2018-08-12T06:42:42.855Z,97737.92
2018-08-12T06:45:13.315Z,97728.47
2018-08-12T06:47:42.872Z,97736.84
2018-08-12T06:50:11.770Z,97731.48
2018-08-12T06:52:41.051Z,97721.49
2018-08-12T06:55:11.463Z,97730.24
2018-08-12T06:57:40.347Z,97733.44
2018-08-12T07:00:10.997Z,97728.60
2018-08-12T07:02:39.486Z,97725.84
2018-08-12T07:05:09.308Z,97729.03
2018-08-12T07:07:38.319Z,97720.65
2018-08-12T07:10:09.336Z,97725.08
2018-08-12T07:12:38.039Z,97725.66
2018-08-12T07:15:09.019Z,97722.84
2018-08-12T07:17:37.557Z,97653.66
2018-08-12T07:20:07.355Z,97713.66
2018-08-12T07:22:35.971Z,97709.48
2018-08-12T07:25:04.914Z,97704.84
2018-08-12T07:27:33.503Z,97706.61
2018-08-12T07:30:02.037Z,97705.81
2018-08-12T07:32:30.616Z,97707.58
2018-08-12T07:34:59.162Z,97695.61
2018-08-12T07:37:27.697Z,97695.30
2018-08-12T07:39:56.162Z,97703.91
2018-08-12T07:42:24.711Z,97701.80
2018-08-12T07:44:53.301Z,97697.59
2018-08-12T07:47:21.803Z,97689.13
2018-08-12T07:49:50.273Z,97688.77
2018-08-12T07:52:18.791Z,97692.25
2018-08-12T07:54:47.330Z,97687.61
2018-08-12T07:57:15.790Z,97685.61
2018-08-12T07:59:44.255Z,97683.14
2018-08-12T08:02:12.714Z,97681.10
2018-08-12T08:04:41.170Z,97673.50
2018-08-12T08:07:09.710Z,97671.02
2018-08-12T08:09:38.162Z,97673.70
2018-08-12T08:12:06.636Z,97672.95
2018-08-12T08:14:35.128Z,97676.03
2018-08-12T08:17:03.652Z,97679.92
2018-08-12T08:19:32.145Z,97674.03
2018-08-12T08:22:00.622Z,97665.55
2018-08-12T08:24:29.087Z,97664.70
2018-08-12T08:26:57.542Z,97672.11
2018-08-12T08:29:25.999Z,97662.75
2018-08-12T08:31:54.569Z,97662.38
2018-08-12T08:34:22.958Z,97660.73
2018-08-12T08:36:51.456Z,97654.77
2018-08-12T08:39:19.930Z,97653.97
2018-08-12T08:41:48.405Z,97645.52
2018-08-12T08:44:16.886Z,97642.98
2018-08-12T08:46:45.350Z,97642.59
2018-08-12T08:49:13.845Z,97638.78
2018-08-12T08:51:42.317Z,97634.13
2018-08-12T08:54:10.793Z,97636.30
2018-08-12T08:56:39.260Z,97636.73
2018-08-12T08:59:07.757Z,97631.23
2018-08-12T09:01:36.185Z,97629.56
2018-08-12T09:04:04.851Z,97634.32
2018-08-12T09:06:33.314Z,97631.80
2018-08-12T09:09:02.155Z,97631.39
2018-08-12T09:11:30.498Z,97622.45
2018-08-12T09:13:58.967Z,97623.77
2018-08-12T09:16:27.447Z,97625.91
2018-08-12T09:18:55.894Z,97623.81
2018-08-12T09:21:24.346Z,97622.13
2018-08-12T09:23:52.841Z,97625.57
2018-08-12T09:26:21.286Z,97619.63
2018-08-12T09:28:49.851Z,97614.95
2018-08-12T09:31:18.352Z,97615.38
2018-08-12T09:33:46.921Z,97613.26
2018-08-12T09:36:15.388Z,97602.59
2018-08-12T09:38:43.877Z,97601.31
2018-08-12T09:41:12.321Z,97600.07
2018-08-12T09:43:40.749Z,97597.95
2018-08-12T09:46:09.261Z,97597.14
2018-08-12T09:48:37.729Z,97595.02
2018-08-12T09:51:06.214Z,97589.88
2018-08-12T09:53:34.678Z,97592.52
2018-08-12T09:56:03.147Z,97592.96
2018-08-12T09:58:31.641Z,97591.75
2018-08-12T10:01:00.079Z,97596.06
2018-08-12T10:03:28.530Z,97587.90
2018-08-12T10:05:56.989Z,97587.13
2018-08-12T10:08:25.549Z,97582.91
2018-08-12T10:10:54.018Z,97579.13
2018-08-12T10:13:22.476Z,97574.03
2018-08-12T10:15:51.031Z,97571.50
2018-08-12T10:18:19.591Z,97569.01
2018-08-12T10:20:48.102Z,97563.06
2018-08-12T10:23:16.638Z,97560.50
2018-08-12T10:25:45.102Z,97558.00
2018-08-12T10:28:13.588Z,97559.72
2018-08-12T10:30:42.139Z,97558.84
2018-08-12T10:33:10.670Z,97557.59
2018-08-12T10:35:39.117Z,97549.49
2018-08-12T10:38:07.617Z,97546.55
2018-08-12T10:40:36.066Z,97549.16
2018-08-12T10:43:04.546Z,97541.89
2018-08-12T10:45:33.004Z,97536.77
2018-08-12T10:48:01.483Z,97540.23
2018-08-12T10:50:29.996Z,97534.27
2018-08-12T10:52:58.528Z,97522.31
2018-08-12T10:55:27.154Z,97521.06
2018-08-12T10:57:55.671Z,97523.66
2018-08-12T11:00:29.351Z,97524.09
2018-08-12T11:02:57.878Z,97507.85
2018-08-12T11:05:26.419Z,97499.34
2018-08-12T11:07:58.934Z,97512.64
2018-08-12T11:10:27.946Z,97506.72
2018-08-12T11:12:56.491Z,97502.50
2018-08-12T11:15:25.001Z,97502.15
2018-08-12T11:17:53.526Z,97494.83
2018-08-12T11:20:22.036Z,97490.97
2018-08-12T11:22:50.527Z,97489.26
2018-08-12T11:25:19.010Z,97484.97
2018-08-12T11:27:47.482Z,97490.54
2018-08-12T11:30:17.570Z,97489.26
2018-08-12T11:32:46.158Z,97469.54
2018-08-12T11:35:16.290Z,97466.12
2018-08-12T11:37:45.271Z,97465.66
2018-08-12T11:40:14.739Z,97468.25
2018-08-12T11:42:43.536Z,97454.52
2018-08-12T11:45:14.394Z,97457.05
2018-08-12T11:47:43.799Z,97451.02
2018-08-12T11:50:12.683Z,97448.42
2018-08-12T11:52:42.078Z,97444.66
2018-08-12T11:55:12.430Z,97442.16
2018-08-12T11:57:41.386Z,97432.79
2018-08-12T12:00:14.056Z,97423.48
2018-08-12T12:02:42.745Z,97432.20
2018-08-12T12:05:12.900Z,97426.80
2018-08-12T12:07:41.584Z,97424.34
2018-08-12T12:10:12.800Z,97425.70
2018-08-12T12:12:42.623Z,97418.88
2018-08-12T12:15:11.757Z,97425.29
2018-08-12T12:17:40.294Z,97421.44
2018-08-12T12:20:10.621Z,97420.59
2018-08-12T12:22:39.946Z,97410.70
2018-08-12T12:25:10.673Z,97409.39
2018-08-12T12:27:39.450Z,97399.09
2018-08-12T12:30:10.838Z,97396.53
2018-08-12T12:32:39.364Z,97396.07
2018-08-12T12:35:07.846Z,97388.78
2018-08-12T12:37:36.361Z,97390.47
2018-08-12T12:40:06.475Z,97385.31
2018-08-12T12:42:35.037Z,97379.71
2018-08-12T12:45:03.542Z,97383.56
2018-08-12T12:47:32.049Z,97381.43
2018-08-12T12:50:01.462Z,97376.30
2018-08-12T12:52:31.084Z,97368.59
2018-08-12T12:54:59.591Z,97366.47
2018-08-12T12:57:28.195Z,97364.74
2018-08-12T12:59:56.763Z,97370.70
2018-08-12T13:02:25.360Z,97364.69
2018-08-12T13:04:53.813Z,97364.25
2018-08-12T13:07:22.278Z,97354.84
2018-08-12T13:09:50.737Z,97356.13
2018-08-12T13:12:19.229Z,97351.83
2018-08-12T13:14:47.691Z,97345.03
2018-08-12T13:17:16.163Z,97343.80
2018-08-12T13:19:44.630Z,97344.28
2018-08-12T13:22:13.122Z,97338.30
2018-08-12T13:24:41.628Z,97334.01
2018-08-12T13:27:10.109Z,97330.19
2018-08-12T13:29:38.566Z,97333.22
2018-08-12T13:32:07.066Z,97326.33
2018-08-12T13:34:35.578Z,97330.19
2018-08-12T13:37:04.075Z,97316.50
2018-08-12T13:39:32.621Z,97319.91
2018-08-12T13:42:01.106Z,97318.20
2018-08-12T13:44:29.608Z,97314.34
2018-08-12T13:46:58.767Z,97311.37
2018-08-12T13:49:27.246Z,97307.52
2018-08-12T13:51:55.723Z,97313.06
2018-08-12T13:54:24.372Z,97309.20
2018-08-12T13:56:52.918Z,97309.62
2018-08-12T13:59:21.621Z,97295.50
2018-08-12T14:01:50.102Z,97299.34
2018-08-12T14:04:18.638Z,97294.22
2018-08-12T14:06:47.119Z,97293.78
2018-08-12T14:09:15.638Z,97286.48
2018-08-12T14:11:44.137Z,97288.64
2018-08-12T14:14:13.878Z,97284.39
2018-08-12T14:16:42.375Z,97279.66
2018-08-12T14:19:10.861Z,97275.80
2018-08-12T14:21:39.351Z,97271.52
2018-08-12T14:24:07.890Z,97265.95
2018-08-12T14:26:36.423Z,97260.41
2018-08-12T14:29:05.117Z,97261.26
2018-08-12T14:31:33.623Z,97254.84
2018-08-12T14:34:02.094Z,97251.83
2018-08-12T14:36:30.562Z,97256.96
2018-08-12T14:38:59.063Z,97252.27
2018-08-12T14:41:27.598Z,97253.55
2018-08-12T14:43:56.105Z,97251.83
2018-08-12T14:46:24.805Z,97247.98
2018-08-12T14:48:53.366Z,97240.27
2018-08-12T14:51:22.249Z,97191.06
2018-08-12T14:53:50.733Z,97233.42
2018-08-12T14:56:19.522Z,97232.55
2018-08-12T14:58:48.068Z,97228.29
2018-08-12T15:01:16.848Z,97226.58
2018-08-12T15:03:45.329Z,97222.72
2018-08-12T15:06:13.886Z,97224.00
2018-08-12T15:08:42.407Z,97222.28
2018-08-12T15:11:10.874Z,97220.59
2018-08-12T15:13:39.360Z,97215.89
2018-08-12T15:16:09.360Z,97206.47
2018-08-12T15:18:37.982Z,97202.62
2018-08-12T15:21:06.478Z,97200.92
2018-08-12T15:23:35.091Z,97204.33
2018-08-12T15:26:03.579Z,97201.77
2018-08-12T15:28:32.079Z,97195.81
2018-08-12T15:31:00.572Z,97192.80
2018-08-12T15:33:29.135Z,97189.80
2018-08-12T15:35:57.642Z,97185.54
2018-08-12T15:38:26.146Z,97184.26
2018-08-12T15:40:54.642Z,97177.39
2018-08-12T15:43:23.143Z,97176.55
2018-08-12T15:45:51.668Z,97173.13
2018-08-12T15:48:20.202Z,97175.70
2018-08-12T15:50:48.679Z,97170.56
2018-08-12T15:53:17.158Z,97166.72
2018-08-12T15:55:45.743Z,97165.02
2018-08-12T15:58:14.228Z,97162.02
2018-08-12T16:00:42.697Z,97159.44
2018-08-12T16:03:11.213Z,97159.44
2018-08-12T16:05:39.750Z,97158.16
2018-08-12T16:08:08.222Z,97154.31
2018-08-12T16:10:36.937Z,97148.77
2018-08-12T16:13:05.514Z,97147.48
2018-08-12T16:15:34.098Z,97144.06
2018-08-12T16:18:02.846Z,97146.22
2018-08-12T16:20:31.857Z,97141.49
2018-08-12T16:23:00.368Z,97137.66
2018-08-12T16:25:28.975Z,97135.52
2018-08-12T16:27:57.563Z,97136.81
2018-08-12T16:30:26.333Z,97130.81
2018-08-12T16:32:55.594Z,97126.96
2018-08-12T16:35:24.107Z,97124.82
2018-08-12T16:37:52.586Z,97126.55
2018-08-12T16:40:21.814Z,97118.37
2018-08-12T16:42:50.629Z,97118.83
2018-08-12T16:45:19.950Z,97118.84
2018-08-12T16:47:48.829Z,97120.56
2018-08-12T16:50:18.117Z,97113.73
2018-08-12T16:52:46.691Z,97111.58
2018-08-12T16:55:16.721Z,97113.28
2018-08-12T16:57:46.184Z,97107.31
2018-08-12T17:00:18.677Z,97108.16
2018-08-12T17:02:47.294Z,97105.59
2018-08-12T17:05:17.155Z,97105.17
2018-08-12T17:07:46.088Z,97103.89
2018-08-12T17:10:16.006Z,97094.91
2018-08-12T17:12:45.288Z,97097.47
2018-08-12T17:15:16.567Z,97093.64
2018-08-12T17:17:46.052Z,96884.66
2018-08-12T17:20:16.596Z,97089.78
2018-08-12T17:22:45.560Z,97089.37
2018-08-12T17:25:15.066Z,97086.34
2018-08-12T17:27:44.070Z,97085.06
2018-08-12T17:30:14.512Z,97079.91
2018-08-12T17:32:43.510Z,97077.34
2018-08-12T17:35:12.686Z,97079.89
2018-08-12T17:37:42.927Z,97077.78
2018-08-12T17:40:13.547Z,97073.05
2018-08-12T17:42:42.730Z,97073.95
2018-08-12T17:45:12.611Z,97074.40
2018-08-12T17:47:41.635Z,97075.29
2018-08-12T17:50:11.935Z,97069.28
2018-08-12T17:52:41.050Z,97072.74
2018-08-12T17:55:09.880Z,97072.74
2018-08-12T17:57:38.360Z,97069.70
2018-08-12T18:00:13.282Z,97074.42
2018-08-12T18:02:42.172Z,97073.98
2018-08-12T18:05:11.021Z,97070.16
2018-08-12T18:07:40.236Z,97070.17
2018-08-12T18:10:09.754Z,97072.76
2018-08-12T18:12:38.723Z,97068.92
2018-08-12T18:15:08.943Z,97077.48
2018-08-12T18:17:37.742Z,97078.36
2018-08-12T18:20:06.585Z,97075.79
2018-08-12T18:22:35.074Z,97078.38
2018-08-12T18:25:03.683Z,97074.94
2018-08-12T18:27:32.310Z,97070.67
2018-08-12T18:30:00.876Z,97080.55
2018-08-12T18:32:29.374Z,97079.67
2018-08-12T18:34:58.227Z,97080.55
2018-08-12T18:37:27.349Z,97079.66
2018-08-12T18:39:55.894Z,97076.66
2018-08-12T18:42:24.412Z,97072.34
2018-08-12T18:44:52.897Z,97078.77
2018-08-12T18:47:21.847Z,97031.84
2018-08-12T18:49:50.324Z,97075.77
2018-08-12T18:52:18.909Z,97080.03
2018-08-12T18:54:47.391Z,97080.46
2018-08-12T18:57:15.886Z,97075.34
2018-08-12T18:59:44.396Z,97082.21
2018-08-12T19:02:12.887Z,97037.01
2018-08-12T19:04:41.433Z,97079.69
2018-08-12T19:07:09.917Z,97087.00
2018-08-12T19:09:38.452Z,97090.43
2018-08-12T19:12:06.941Z,97091.30
2018-08-12T19:14:35.434Z,97094.34
2018-08-12T19:17:03.940Z,97094.77
2018-08-12T19:19:32.478Z,97096.92
2018-08-12T19:22:01.725Z,97094.30
2018-08-12T19:24:30.253Z,97091.78
2018-08-12T19:26:58.727Z,97095.20
2018-08-12T19:29:27.198Z,97096.51
2018-08-12T19:31:55.665Z,97090.53
2018-08-12T19:34:24.186Z,97090.96
2018-08-12T19:36:52.742Z,97092.67
2018-08-12T19:39:21.341Z,97091.81
2018-08-12T19:41:49.926Z,97092.24
2018-08-12T19:44:18.403Z,97090.09
2018-08-12T19:46:46.949Z,97084.94
2018-08-12T19:49:15.514Z,97079.37
2018-08-12T19:51:44.109Z,97078.08
2018-08-12T19:54:12.622Z,97081.94
2018-08-12T19:56:41.107Z,97081.92
2018-08-12T19:59:09.614Z,97083.20
2018-08-12T20:01:38.208Z,97084.48
2018-08-12T20:04:06.806Z,97077.60
2018-08-12T20:06:35.842Z,97087.03
2018-08-12T20:09:06.400Z,97081.88
2018-08-12T20:11:34.998Z,97087.84
2018-08-12T20:14:03.768Z,97079.71
2018-08-12T20:16:32.363Z,97089.11
2018-08-12T20:19:01.025Z,97084.83
2018-08-12T20:21:29.557Z,97081.39
2018-08-12T20:23:58.095Z,97087.81
2018-08-12T20:26:27.069Z,97076.68
2018-08-12T20:28:55.596Z,97080.09
2018-08-12T20:31:24.161Z,97080.52
2018-08-12T20:33:52.719Z,97079.23
2018-08-12T20:36:21.738Z,97080.52
2018-08-12T20:38:50.221Z,97081.34
2018-08-12T20:41:18.760Z,97088.22
2018-08-12T20:43:47.294Z,97084.78
2018-08-12T20:46:15.840Z,97083.91
2018-08-12T20:48:44.340Z,97081.34
2018-08-12T20:51:12.809Z,97079.63
2018-08-12T20:53:41.446Z,97081.34
2018-08-12T20:56:10.023Z,97080.03
2018-08-12T20:58:38.547Z,97074.48
2018-08-12T21:01:07.297Z,97075.77
2018-08-12T21:03:35.886Z,97073.19
2018-08-12T21:06:04.447Z,97073.62
2018-08-12T21:08:32.947Z,97073.62
2018-08-12T21:11:01.499Z,97072.33
2018-08-12T21:13:29.973Z,97073.19
2018-08-12T21:15:58.497Z,97078.77
2018-08-12T21:18:26.997Z,97071.94
2018-08-12T21:20:55.503Z,97073.22
2018-08-12T21:23:23.993Z,97068.09
2018-08-12T21:25:52.512Z,97065.11
2018-08-12T21:28:21.024Z,97066.41
2018-08-12T21:30:49.526Z,97060.83
2018-08-12T21:33:18.030Z,97056.16
2018-08-12T21:35:47.341Z,97056.59
2018-08-12T21:38:15.858Z,97054.05
2018-08-12T21:40:44.402Z,97048.48
2018-08-12T21:43:12.921Z,97057.48
2018-08-12T21:45:41.517Z,97057.48
2018-08-12T21:48:10.026Z,97057.48
2018-08-12T21:50:38.543Z,97054.92
2018-08-12T21:53:07.114Z,97048.92
2018-08-12T21:55:35.606Z,97049.31
2018-08-12T21:58:04.134Z,97051.05
2018-08-12T22:00:32.704Z,97049.78
2018-08-12T22:03:01.192Z,97051.45
2018-08-12T22:05:29.715Z,97057.02
2018-08-12T22:07:58.929Z,97052.33
2018-08-12T22:10:27.432Z,97057.89
2018-08-12T22:12:55.916Z,97058.30
2018-08-12T22:15:24.467Z,97061.73
2018-08-12T22:17:53.019Z,97061.32
2018-08-12T22:20:21.525Z,97056.59
2018-08-12T22:22:50.027Z,97050.59
2018-08-12T22:25:18.507Z,97050.59
2018-08-12T22:27:47.027Z,97057.00
2018-08-12T22:30:16.723Z,97057.00
2018-08-12T22:32:45.409Z,97053.14
2018-08-12T22:35:13.928Z,97051.44
2018-08-12T22:37:42.447Z,97050.17
2018-08-12T22:40:10.992Z,97049.75
2018-08-12T22:42:39.513Z,97053.61
2018-08-12T22:45:09.714Z,97047.59
2018-08-12T22:47:38.202Z,97049.75
2018-08-12T22:50:07.753Z,97050.59
2018-08-12T22:52:36.391Z,97050.59
2018-08-12T22:55:05.723Z,97049.75
2018-08-12T22:57:34.250Z,97050.59
2018-08-12T23:00:02.761Z,97043.33
2018-08-12T23:02:31.281Z,97037.31
2018-08-12T23:04:59.813Z,97050.59
2018-08-12T23:07:28.318Z,97049.30
2018-08-12T23:09:56.820Z,97045.02
2018-08-12T23:12:25.346Z,97044.61
2018-08-12T23:14:55.642Z,97046.73
2018-08-12T23:17:24.233Z,97040.76
2018-08-12T23:19:52.724Z,97038.60
2018-08-12T23:22:21.268Z,97033.04
2018-08-12T23:24:49.761Z,97038.17
2018-08-12T23:27:18.259Z,97037.31
2018-08-12T23:29:46.798Z,97036.89
2018-08-12T23:32:15.352Z,97033.88
2018-08-12T23:34:43.852Z,97030.01
2018-08-12T23:37:12.391Z,97031.75
2018-08-12T23:39:40.873Z,97025.75
2018-08-12T23:42:09.428Z,97027.03
2018-08-12T23:44:37.975Z,97024.44
2018-08-12T23:47:06.479Z,97027.03
2018-08-12T23:49:34.999Z,97022.75
2018-08-12T23:52:03.500Z,97023.16
2018-08-12T23:54:32.003Z,97021.02
2018-08-12T23:57:00.496Z,97020.20
2018-08-12T23:59:29.036Z,97022.77
